Tullahoma, TN

8:56 PM CST en Febrero 28, 2015 (GMT -0600)
tullahoma tenn | Change Station
CLOSE
Current Station
Estación meteorológica personal
Location: Tullahoma, TN
Altura: 1083 ft
Estaciones meteorológicas cercanas

Alt 1083 ft 35.36 °N, 86.23 °W | Updated 14 minutes ago

Nublado
Nublado
45.3 ° F
Sensación térmica 45 ° F
N
1.7
Viento Variable Viento desde Este

Hoy
Alta -- | Baja -- ° F
--% Posibilidad de precipitaciones
Ayer
Alta -- | Baja -- ° F
Precip. -- pul
6:16 AM 5:39 PM
Gibosa creciente, 82% visible
Presión 30.43 pul
Visibilidad 10.0 Millas
Nubes Nublado 10000 ft
Vientos helados 45 ° F
Punto de rocío 30 ° F
Humedad 54%
Precipitaciones 0.00 pul
Espesor de la nieve No disponible.
UV 0 de una escala de 12
Polen 3.60 de una escala de 12
Calidad del aire No disponible.
Flu Activity No disponible.
METAR KTHA 010235Z AUTO 14006KT 10SM OVC100 07/M03 A3043 RMK

More Conditions Fewer Conditions

Presión 30.43 pul
Visibilidad 10.0 Millas
Nubes Nublado 10000 ft
Vientos helados 45 ° F
Punto de rocío 30 ° F
Humedad 54%
Precipitaciones 0.00 pul
Espesor de la nieve No disponible.
UV 0 de una escala de 12
Polen 3.60 de una escala de 12
Calidad del aire No disponible.
Flu Activity No disponible.
METAR KTHA 010235Z AUTO 14006KT 10SM OVC100 07/M03 A3043 RMK

More Conditions Fewer Conditions

10-Day Weather Forecast

Almanac

Astronomía

Feb. 28, 2015 Salida Puesta
Hora real
Crepúsculo civil
Crepúsculo náutico
Crepúsculo astronómico
Luna
Horas de luz
Horas de luz
Tomorrow will be .
, % of the Moon is Illuminated

Extremos de hoy

Máximos del estado Bajos del estado

Community

WunderPhotos

Upload Photos

1,801,276 ¡fotos cargadas!

WunderBlogs® & News

Nearby

Calidad del aire

  Calidad del aire Índice AQ Contaminante
Not available.

Grosos de nieve

Estación Profundido Altura

Actividad de terremotos

Ciudad Distance Mag. Tiempo y dato
Magnitud mínima muestra es 2,5.

Temperaturas de aguas costeras

Lugar Temperatura

Estaciones meteorológicas cercanas